sensor_id;sensor_type;location;lat;lon;timestamp;temperature;humidity
17066;DHT22;23120;52.336;21.182;2023-04-25T00:00:36;12.10;86.70
17066;DHT22;23120;52.336;21.182;2023-04-25T00:03:03;12.10;87.10
17066;DHT22;23120;52.336;21.182;2023-04-25T00:05:31;12.00;86.50
17066;DHT22;23120;52.336;21.182;2023-04-25T00:07:57;12.00;86.20
17066;DHT22;23120;52.336;21.182;2023-04-25T00:10:25;12.00;87.20
17066;DHT22;23120;52.336;21.182;2023-04-25T00:12:52;12.00;87.20
17066;DHT22;23120;52.336;21.182;2023-04-25T00:15:19;12.00;88.40
17066;DHT22;23120;52.336;21.182;2023-04-25T00:17:47;11.90;88.50
17066;DHT22;23120;52.336;21.182;2023-04-25T00:20:14;11.90;88.10
17066;DHT22;23120;52.336;21.182;2023-04-25T00:22:41;11.90;89.00
17066;DHT22;23120;52.336;21.182;2023-04-25T00:25:08;11.90;89.00
17066;DHT22;23120;52.336;21.182;2023-04-25T00:27:35;11.90;89.90
17066;DHT22;23120;52.336;21.182;2023-04-25T00:30:02;11.80;89.50
17066;DHT22;23120;52.336;21.182;2023-04-25T00:32:30;11.80;89.00
17066;DHT22;23120;52.336;21.182;2023-04-25T00:34:58;11.80;89.50
17066;DHT22;23120;52.336;21.182;2023-04-25T00:37:25;11.80;90.20
17066;DHT22;23120;52.336;21.182;2023-04-25T00:39:51;11.70;90.10
17066;DHT22;23120;52.336;21.182;2023-04-25T00:42:19;11.70;90.00
17066;DHT22;23120;52.336;21.182;2023-04-25T00:44:46;11.70;90.40
17066;DHT22;23120;52.336;21.182;2023-04-25T00:47:14;11.70;89.50
17066;DHT22;23120;52.336;21.182;2023-04-25T00:49:41;11.70;88.60
17066;DHT22;23120;52.336;21.182;2023-04-25T00:52:10;11.60;88.80
17066;DHT22;23120;52.336;21.182;2023-04-25T00:54:37;11.60;88.20
17066;DHT22;23120;52.336;21.182;2023-04-25T00:57:04;11.60;87.90
17066;DHT22;23120;52.336;21.182;2023-04-25T00:59:31;11.60;87.30
17066;DHT22;23120;52.336;21.182;2023-04-25T01:01:58;11.60;87.30
17066;DHT22;23120;52.336;21.182;2023-04-25T01:04:27;11.50;86.50
17066;DHT22;23120;52.336;21.182;2023-04-25T01:06:54;11.50;87.20
17066;DHT22;23120;52.336;21.182;2023-04-25T01:09:22;11.50;87.00
17066;DHT22;23120;52.336;21.182;2023-04-25T01:11:49;11.40;86.90
17066;DHT22;23120;52.336;21.182;2023-04-25T01:14:16;11.40;87.10
17066;DHT22;23120;52.336;21.182;2023-04-25T01:16:43;11.30;86.60
17066;DHT22;23120;52.336;21.182;2023-04-25T01:19:10;11.30;86.60
17066;DHT22;23120;52.336;21.182;2023-04-25T01:21:39;11.20;87.00
17066;DHT22;23120;52.336;21.182;2023-04-25T01:24:07;11.20;86.30
17066;DHT22;23120;52.336;21.182;2023-04-25T01:26:35;11.20;86.80
17066;DHT22;23120;52.336;21.182;2023-04-25T01:29:04;11.10;86.60
17066;DHT22;23120;52.336;21.182;2023-04-25T01:31:32;11.10;86.80
17066;DHT22;23120;52.336;21.182;2023-04-25T01:33:59;11.00;86.50
17066;DHT22;23120;52.336;21.182;2023-04-25T01:36:28;11.00;86.80
17066;DHT22;23120;52.336;21.182;2023-04-25T01:38:57;10.90;86.60
17066;DHT22;23120;52.336;21.182;2023-04-25T01:41:24;10.90;86.10
17066;DHT22;23120;52.336;21.182;2023-04-25T01:43:51;10.90;86.10
17066;DHT22;23120;52.336;21.182;2023-04-25T01:46:18;10.80;87.00
17066;DHT22;23120;52.336;21.182;2023-04-25T01:48:45;10.80;86.20
17066;DHT22;23120;52.336;21.182;2023-04-25T01:51:12;10.70;86.50
17066;DHT22;23120;52.336;21.182;2023-04-25T01:53:41;10.70;86.00
17066;DHT22;23120;52.336;21.182;2023-04-25T01:56:10;10.70;85.40
17066;DHT22;23120;52.336;21.182;2023-04-25T01:58:38;10.60;85.60
17066;DHT22;23120;52.336;21.182;2023-04-25T02:01:14;10.50;86.90
17066;DHT22;23120;52.336;21.182;2023-04-25T02:03:47;10.50;86.80
17066;DHT22;23120;52.336;21.182;2023-04-25T02:06:28;10.40;88.30
17066;DHT22;23120;52.336;21.182;2023-04-25T02:08:57;10.40;89.30
17066;DHT22;23120;52.336;21.182;2023-04-25T02:11:25;10.40;90.30
17066;DHT22;23120;52.336;21.182;2023-04-25T02:14:04;10.30;90.80
17066;DHT22;23120;52.336;21.182;2023-04-25T02:16:46;10.30;92.10
17066;DHT22;23120;52.336;21.182;2023-04-25T02:19:13;10.30;92.10
17066;DHT22;23120;52.336;21.182;2023-04-25T02:21:40;10.30;91.80
17066;DHT22;23120;52.336;21.182;2023-04-25T02:24:07;10.30;91.80
17066;DHT22;23120;52.336;21.182;2023-04-25T02:26:36;10.20;92.40
17066;DHT22;23120;52.336;21.182;2023-04-25T02:29:07;10.20;92.10
17066;DHT22;23120;52.336;21.182;2023-04-25T02:31:34;10.20;92.40
17066;DHT22;23120;52.336;21.182;2023-04-25T02:34:01;10.20;94.50
17066;DHT22;23120;52.336;21.182;2023-04-25T02:36:28;10.30;94.40
17066;DHT22;23120;52.336;21.182;2023-04-25T02:38:57;10.30;95.10
17066;DHT22;23120;52.336;21.182;2023-04-25T02:41:24;10.30;95.30
17066;DHT22;23120;52.336;21.182;2023-04-25T02:43:52;10.30;95.30
17066;DHT22;23120;52.336;21.182;2023-04-25T02:46:19;10.30;95.20
17066;DHT22;23120;52.336;21.182;2023-04-25T02:48:46;10.40;95.50
17066;DHT22;23120;52.336;21.182;2023-04-25T02:51:13;10.40;96.40
17066;DHT22;23120;52.336;21.182;2023-04-25T02:53:41;10.40;95.70
17066;DHT22;23120;52.336;21.182;2023-04-25T02:56:08;10.40;95.90
17066;DHT22;23120;52.336;21.182;2023-04-25T02:58:35;10.40;95.60
17066;DHT22;23120;52.336;21.182;2023-04-25T03:01:03;10.40;94.80
17066;DHT22;23120;52.336;21.182;2023-04-25T03:03:30;10.40;94.80
17066;DHT22;23120;52.336;21.182;2023-04-25T03:05:57;10.40;94.40
17066;DHT22;23120;52.336;21.182;2023-04-25T03:08:28;10.40;94.40
17066;DHT22;23120;52.336;21.182;2023-04-25T03:10:59;10.40;93.80
17066;DHT22;23120;52.336;21.182;2023-04-25T03:13:26;10.40;93.50
17066;DHT22;23120;52.336;21.182;2023-04-25T03:15:55;10.40;93.90
17066;DHT22;23120;52.336;21.182;2023-04-25T03:18:23;10.30;93.80
17066;DHT22;23120;52.336;21.182;2023-04-25T03:20:50;10.40;94.40
17066;DHT22;23120;52.336;21.182;2023-04-25T03:23:17;10.40;94.60
17066;DHT22;23120;52.336;21.182;2023-04-25T03:25:44;10.40;94.00
17066;DHT22;23120;52.336;21.182;2023-04-25T03:28:11;10.40;93.90
17066;DHT22;23120;52.336;21.182;2023-04-25T03:30:38;10.40;94.00
17066;DHT22;23120;52.336;21.182;2023-04-25T03:33:05;10.40;94.90
17066;DHT22;23120;52.336;21.182;2023-04-25T03:35:34;10.40;94.10
17066;DHT22;23120;52.336;21.182;2023-04-25T03:38:00;10.40;94.40
17066;DHT22;23120;52.336;21.182;2023-04-25T03:40:32;10.40;94.00
17066;DHT22;23120;52.336;21.182;2023-04-25T03:43:16;10.40;95.20
17066;DHT22;23120;52.336;21.182;2023-04-25T03:45:49;10.40;95.20
17066;DHT22;23120;52.336;21.182;2023-04-25T03:48:19;10.40;95.70
17066;DHT22;23120;52.336;21.182;2023-04-25T03:50:51;10.40;96.30
17066;DHT22;23120;52.336;21.182;2023-04-25T03:53:18;10.50;97.10
17066;DHT22;23120;52.336;21.182;2023-04-25T03:56:06;10.50;96.70
17066;DHT22;23120;52.336;21.182;2023-04-25T03:58:35;10.50;96.80
17066;DHT22;23120;52.336;21.182;2023-04-25T04:01:02;10.60;97.70
17066;DHT22;23120;52.336;21.182;2023-04-25T04:03:33;10.60;97.40
17066;DHT22;23120;52.336;21.182;2023-04-25T04:06:01;10.60;97.30
17066;DHT22;23120;52.336;21.182;2023-04-25T04:08:29;10.70;97.70
17066;DHT22;23120;52.336;21.182;2023-04-25T04:10:56;10.70;97.90
17066;DHT22;23120;52.336;21.182;2023-04-25T04:13:25;10.80;98.10
17066;DHT22;23120;52.336;21.182;2023-04-25T04:15:52;10.80;97.90
17066;DHT22;23120;52.336;21.182;2023-04-25T04:18:19;10.90;98.40
17066;DHT22;23120;52.336;21.182;2023-04-25T04:20:46;11.00;98.50
17066;DHT22;23120;52.336;21.182;2023-04-25T04:23:14;11.00;98.40
17066;DHT22;23120;52.336;21.182;2023-04-25T04:25:42;11.00;98.20
17066;DHT22;23120;52.336;21.182;2023-04-25T04:28:27;11.10;98.40
17066;DHT22;23120;52.336;21.182;2023-04-25T04:30:58;11.10;98.30
17066;DHT22;23120;52.336;21.182;2023-04-25T04:33:26;11.10;98.50
17066;DHT22;23120;52.336;21.182;2023-04-25T04:35:58;11.10;98.60
17066;DHT22;23120;52.336;21.182;2023-04-25T04:38:26;11.20;98.60
17066;DHT22;23120;52.336;21.182;2023-04-25T04:40:56;11.20;98.10
17066;DHT22;23120;52.336;21.182;2023-04-25T04:43:43;11.20;98.30
17066;DHT22;23120;52.336;21.182;2023-04-25T04:46:27;11.20;98.20
17066;DHT22;23120;52.336;21.182;2023-04-25T04:49:07;11.30;98.40
17066;DHT22;23120;52.336;21.182;2023-04-25T04:51:43;11.30;98.30
17066;DHT22;23120;52.336;21.182;2023-04-25T04:54:32;11.30;98.50
17066;DHT22;23120;52.336;21.182;2023-04-25T04:57:20;11.30;98.00
17066;DHT22;23120;52.336;21.182;2023-04-25T04:59:57;11.40;98.70
17066;DHT22;23120;52.336;21.182;2023-04-25T05:02:37;11.40;98.50
17066;DHT22;23120;52.336;21.182;2023-04-25T05:05:17;11.40;98.50
17066;DHT22;23120;52.336;21.182;2023-04-25T05:07:57;11.50;98.70
17066;DHT22;23120;52.336;21.182;2023-04-25T05:10:34;11.50;98.70
17066;DHT22;23120;52.336;21.182;2023-04-25T05:13:14;11.50;98.80
17066;DHT22;23120;52.336;21.182;2023-04-25T05:15:57;11.60;98.50
17066;DHT22;23120;52.336;21.182;2023-04-25T05:18:33;11.60;98.40
17066;DHT22;23120;52.336;21.182;2023-04-25T05:21:08;11.70;98.60
17066;DHT22;23120;52.336;21.182;2023-04-25T05:23:47;11.70;98.40
17066;DHT22;23120;52.336;21.182;2023-04-25T05:26:28;11.80;98.50
17066;DHT22;23120;52.336;21.182;2023-04-25T05:29:07;11.80;98.40
17066;DHT22;23120;52.336;21.182;2023-04-25T05:31:40;11.90;98.60
17066;DHT22;23120;52.336;21.182;2023-04-25T05:34:11;11.90;98.50
17066;DHT22;23120;52.336;21.182;2023-04-25T05:36:48;11.90;98.40
17066;DHT22;23120;52.336;21.182;2023-04-25T05:39:15;12.00;98.50
17066;DHT22;23120;52.336;21.182;2023-04-25T05:42:04;12.00;98.50
17066;DHT22;23120;52.336;21.182;2023-04-25T05:44:47;12.00;98.30
17066;DHT22;23120;52.336;21.182;2023-04-25T05:47:22;12.10;98.30
17066;DHT22;23120;52.336;21.182;2023-04-25T05:50:08;12.10;98.20
17066;DHT22;23120;52.336;21.182;2023-04-25T05:52:49;12.20;98.30
17066;DHT22;23120;52.336;21.182;2023-04-25T05:55:27;12.20;98.00
17066;DHT22;23120;52.336;21.182;2023-04-25T05:57:56;12.20;98.10
17066;DHT22;23120;52.336;21.182;2023-04-25T06:00:23;12.20;97.70
17066;DHT22;23120;52.336;21.182;2023-04-25T06:02:50;12.20;97.80
17066;DHT22;23120;52.336;21.182;2023-04-25T06:05:18;12.20;97.60
17066;DHT22;23120;52.336;21.182;2023-04-25T06:07:46;12.20;97.60
17066;DHT22;23120;52.336;21.182;2023-04-25T06:10:13;12.20;97.70
17066;DHT22;23120;52.336;21.182;2023-04-25T06:12:41;12.20;97.50
17066;DHT22;23120;52.336;21.182;2023-04-25T06:15:10;12.20;97.50
17066;DHT22;23120;52.336;21.182;2023-04-25T06:17:37;12.20;97.50
17066;DHT22;23120;52.336;21.182;2023-04-25T06:20:06;12.20;97.70
17066;DHT22;23120;52.336;21.182;2023-04-25T06:22:34;12.20;97.50
17066;DHT22;23120;52.336;21.182;2023-04-25T06:25:00;12.20;97.50
17066;DHT22;23120;52.336;21.182;2023-04-25T06:27:30;12.20;97.70
17066;DHT22;23120;52.336;21.182;2023-04-25T06:29:56;12.20;97.50
17066;DHT22;23120;52.336;21.182;2023-04-25T06:32:26;12.20;97.60
17066;DHT22;23120;52.336;21.182;2023-04-25T06:34:54;12.20;97.70
17066;DHT22;23120;52.336;21.182;2023-04-25T06:37:21;12.20;97.50
17066;DHT22;23120;52.336;21.182;2023-04-25T06:39:50;12.20;97.30
17066;DHT22;23120;52.336;21.182;2023-04-25T06:42:16;12.20;97.30
17066;DHT22;23120;52.336;21.182;2023-04-25T06:44:52;12.20;97.30
17066;DHT22;23120;52.336;21.182;2023-04-25T06:47:19;12.20;97.00
17066;DHT22;23120;52.336;21.182;2023-04-25T06:49:49;12.20;96.90
17066;DHT22;23120;52.336;21.182;2023-04-25T06:52:16;12.20;96.70
17066;DHT22;23120;52.336;21.182;2023-04-25T06:54:45;12.20;96.50
17066;DHT22;23120;52.336;21.182;2023-04-25T06:57:21;12.20;96.40
17066;DHT22;23120;52.336;21.182;2023-04-25T06:59:49;12.20;96.30
17066;DHT22;23120;52.336;21.182;2023-04-25T07:02:16;12.00;96.50
17066;DHT22;23120;52.336;21.182;2023-04-25T07:04:43;12.10;96.70
17066;DHT22;23120;52.336;21.182;2023-04-25T07:07:13;12.00;97.00
17066;DHT22;23120;52.336;21.182;2023-04-25T07:09:46;12.00;97.60
17066;DHT22;23120;52.336;21.182;2023-04-25T07:12:13;11.90;97.90
17066;DHT22;23120;52.336;21.182;2023-04-25T07:14:39;11.80;98.20
17066;DHT22;23120;52.336;21.182;2023-04-25T07:17:08;11.80;98.60
17066;DHT22;23120;52.336;21.182;2023-04-25T07:19:34;11.80;99.00
17066;DHT22;23120;52.336;21.182;2023-04-25T07:22:03;11.80;98.80
17066;DHT22;23120;52.336;21.182;2023-04-25T07:24:32;11.80;99.10
17066;DHT22;23120;52.336;21.182;2023-04-25T07:26:59;11.80;99.10
17066;DHT22;23120;52.336;21.182;2023-04-25T07:29:30;11.80;99.90
17066;DHT22;23120;52.336;21.182;2023-04-25T07:31:59;11.80;99.90
17066;DHT22;23120;52.336;21.182;2023-04-25T07:34:26;11.80;99.80
17066;DHT22;23120;52.336;21.182;2023-04-25T07:36:53;11.80;99.90
17066;DHT22;23120;52.336;21.182;2023-04-25T07:39:21;11.90;99.90
17066;DHT22;23120;52.336;21.182;2023-04-25T07:41:50;11.90;99.90
17066;DHT22;23120;52.336;21.182;2023-04-25T07:44:22;11.90;99.90
17066;DHT22;23120;52.336;21.182;2023-04-25T07:46:49;11.90;99.80
17066;DHT22;23120;52.336;21.182;2023-04-25T07:49:16;12.00;99.70
17066;DHT22;23120;52.336;21.182;2023-04-25T07:51:44;12.00;99.80
17066;DHT22;23120;52.336;21.182;2023-04-25T07:54:14;12.00;99.70
17066;DHT22;23120;52.336;21.182;2023-04-25T07:56:46;12.00;99.70
17066;DHT22;23120;52.336;21.182;2023-04-25T07:59:14;12.00;99.50
17066;DHT22;23120;52.336;21.182;2023-04-25T08:01:42;12.00;99.70
17066;DHT22;23120;52.336;21.182;2023-04-25T08:04:10;12.10;99.30
17066;DHT22;23120;52.336;21.182;2023-04-25T08:06:47;12.00;99.30
17066;DHT22;23120;52.336;21.182;2023-04-25T08:09:19;12.10;99.40
17066;DHT22;23120;52.336;21.182;2023-04-25T08:11:46;12.10;99.50
17066;DHT22;23120;52.336;21.182;2023-04-25T08:14:17;12.10;99.60
17066;DHT22;23120;52.336;21.182;2023-04-25T08:16:45;12.10;99.30
17066;DHT22;23120;52.336;21.182;2023-04-25T08:19:12;12.10;99.40
17066;DHT22;23120;52.336;21.182;2023-04-25T08:21:39;12.20;99.50
17066;DHT22;23120;52.336;21.182;2023-04-25T08:24:10;12.30;99.80
17066;DHT22;23120;52.336;21.182;2023-04-25T08:26:39;12.30;99.40
17066;DHT22;23120;52.336;21.182;2023-04-25T08:29:08;12.40;99.60
17066;DHT22;23120;52.336;21.182;2023-04-25T08:31:39;12.50;99.50
17066;DHT22;23120;52.336;21.182;2023-04-25T08:34:07;12.50;99.30
17066;DHT22;23120;52.336;21.182;2023-04-25T08:36:47;12.60;99.20
17066;DHT22;23120;52.336;21.182;2023-04-25T08:39:22;12.70;99.00
17066;DHT22;23120;52.336;21.182;2023-04-25T08:42:07;12.70;98.50
17066;DHT22;23120;52.336;21.182;2023-04-25T08:44:35;12.70;98.20
17066;DHT22;23120;52.336;21.182;2023-04-25T08:47:05;12.70;98.10
17066;DHT22;23120;52.336;21.182;2023-04-25T08:49:38;12.70;97.80
17066;DHT22;23120;52.336;21.182;2023-04-25T08:52:07;12.60;97.40
17066;DHT22;23120;52.336;21.182;2023-04-25T08:54:37;12.60;97.10
17066;DHT22;23120;52.336;21.182;2023-04-25T08:57:06;12.60;97.10
17066;DHT22;23120;52.336;21.182;2023-04-25T08:59:34;12.50;97.00
17066;DHT22;23120;52.336;21.182;2023-04-25T09:02:04;12.40;97.00
17066;DHT22;23120;52.336;21.182;2023-04-25T09:04:31;12.40;97.00
17066;DHT22;23120;52.336;21.182;2023-04-25T09:06:58;12.30;97.00
17066;DHT22;23120;52.336;21.182;2023-04-25T09:09:26;12.30;97.60
17066;DHT22;23120;52.336;21.182;2023-04-25T09:11:54;12.30;97.40
17066;DHT22;23120;52.336;21.182;2023-04-25T09:14:23;12.20;97.50
17066;DHT22;23120;52.336;21.182;2023-04-25T09:17:04;12.30;97.60
17066;DHT22;23120;52.336;21.182;2023-04-25T09:19:48;12.30;97.60
17066;DHT22;23120;52.336;21.182;2023-04-25T09:22:24;12.30;97.60
17066;DHT22;23120;52.336;21.182;2023-04-25T09:24:52;12.30;97.50
17066;DHT22;23120;52.336;21.182;2023-04-25T09:27:22;12.30;97.20
17066;DHT22;23120;52.336;21.182;2023-04-25T09:29:57;12.30;97.00
17066;DHT22;23120;52.336;21.182;2023-04-25T09:32:27;12.30;96.80
17066;DHT22;23120;52.336;21.182;2023-04-25T09:34:57;12.30;96.30
17066;DHT22;23120;52.336;21.182;2023-04-25T09:37:26;12.30;96.40
17066;DHT22;23120;52.336;21.182;2023-04-25T09:40:08;12.30;96.50
17066;DHT22;23120;52.336;21.182;2023-04-25T09:42:49;12.30;96.40
17066;DHT22;23120;52.336;21.182;2023-04-25T09:45:17;12.20;96.40
17066;DHT22;23120;52.336;21.182;2023-04-25T09:47:45;12.30;96.30
17066;DHT22;23120;52.336;21.182;2023-04-25T09:50:15;12.20;96.20
17066;DHT22;23120;52.336;21.182;2023-04-25T09:52:46;12.30;95.60
17066;DHT22;23120;52.336;21.182;2023-04-25T09:55:28;12.20;95.30
17066;DHT22;23120;52.336;21.182;2023-04-25T09:57:57;12.20;95.70
17066;DHT22;23120;52.336;21.182;2023-04-25T10:00:29;12.10;95.70
17066;DHT22;23120;52.336;21.182;2023-04-25T10:03:06;12.10;95.60
17066;DHT22;23120;52.336;21.182;2023-04-25T10:05:48;12.10;95.70
17066;DHT22;23120;52.336;21.182;2023-04-25T10:08:18;12.00;95.90
17066;DHT22;23120;52.336;21.182;2023-04-25T10:10:46;12.00;95.90
17066;DHT22;23120;52.336;21.182;2023-04-25T10:13:16;11.90;95.90
17066;DHT22;23120;52.336;21.182;2023-04-25T10:15:43;11.90;95.90
17066;DHT22;23120;52.336;21.182;2023-04-25T10:18:14;11.90;96.00
17066;DHT22;23120;52.336;21.182;2023-04-25T10:20:44;11.80;96.10
17066;DHT22;23120;52.336;21.182;2023-04-25T10:23:13;11.80;96.00
17066;DHT22;23120;52.336;21.182;2023-04-25T10:25:41;11.80;96.30
17066;DHT22;23120;52.336;21.182;2023-04-25T10:28:08;11.80;96.10
17066;DHT22;23120;52.336;21.182;2023-04-25T10:30:36;11.80;96.10
17066;DHT22;23120;52.336;21.182;2023-04-25T10:33:17;11.80;96.30
17066;DHT22;23120;52.336;21.182;2023-04-25T10:35:45;11.80;96.00
17066;DHT22;23120;52.336;21.182;2023-04-25T10:38:14;11.80;96.20
17066;DHT22;23120;52.336;21.182;2023-04-25T10:40:41;11.80;96.30
17066;DHT22;23120;52.336;21.182;2023-04-25T10:43:33;11.80;96.50
17066;DHT22;23120;52.336;21.182;2023-04-25T10:46:01;11.90;96.50
17066;DHT22;23120;52.336;21.182;2023-04-25T10:48:31;11.90;96.50
17066;DHT22;23120;52.336;21.182;2023-04-25T10:51:08;11.90;96.50
17066;DHT22;23120;52.336;21.182;2023-04-25T10:53:35;12.00;96.50
17066;DHT22;23120;52.336;21.182;2023-04-25T10:56:09;12.00;96.50
17066;DHT22;23120;52.336;21.182;2023-04-25T10:58:42;12.00;96.50
17066;DHT22;23120;52.336;21.182;2023-04-25T11:01:08;12.00;96.30
17066;DHT22;23120;52.336;21.182;2023-04-25T11:03:40;11.90;96.30
17066;DHT22;23120;52.336;21.182;2023-04-25T11:06:15;11.90;96.60
17066;DHT22;23120;52.336;21.182;2023-04-25T11:08:48;12.00;96.60
17066;DHT22;23120;52.336;21.182;2023-04-25T11:11:15;12.00;96.50
17066;DHT22;23120;52.336;21.182;2023-04-25T11:13:42;12.00;96.40
17066;DHT22;23120;52.336;21.182;2023-04-25T11:16:09;11.90;96.00
17066;DHT22;23120;52.336;21.182;2023-04-25T11:18:36;11.90;96.00
17066;DHT22;23120;52.336;21.182;2023-04-25T11:21:05;11.90;96.10
17066;DHT22;23120;52.336;21.182;2023-04-25T11:23:32;11.80;96.30
17066;DHT22;23120;52.336;21.182;2023-04-25T11:25:59;11.80;96.30
17066;DHT22;23120;52.336;21.182;2023-04-25T11:28:27;11.70;96.50
17066;DHT22;23120;52.336;21.182;2023-04-25T11:30:53;11.80;96.30
17066;DHT22;23120;52.336;21.182;2023-04-25T11:33:23;11.80;96.30
17066;DHT22;23120;52.336;21.182;2023-04-25T11:35:53;11.80;96.30
17066;DHT22;23120;52.336;21.182;2023-04-25T11:38:22;11.80;96.30
17066;DHT22;23120;52.336;21.182;2023-04-25T11:40:52;11.80;96.20
17066;DHT22;23120;52.336;21.182;2023-04-25T11:43:20;11.80;96.30
17066;DHT22;23120;52.336;21.182;2023-04-25T11:45:48;11.80;96.00
17066;DHT22;23120;52.336;21.182;2023-04-25T11:48:16;11.80;96.20
17066;DHT22;23120;52.336;21.182;2023-04-25T11:50:43;11.80;95.90
17066;DHT22;23120;52.336;21.182;2023-04-25T11:53:10;11.60;95.30
17066;DHT22;23120;52.336;21.182;2023-04-25T11:55:38;11.70;95.70
17066;DHT22;23120;52.336;21.182;2023-04-25T11:58:05;11.80;95.40
17066;DHT22;23120;52.336;21.182;2023-04-25T12:00:32;11.70;95.10
17066;DHT22;23120;52.336;21.182;2023-04-25T12:02:59;11.70;95.20
17066;DHT22;23120;52.336;21.182;2023-04-25T12:05:29;11.80;95.30
17066;DHT22;23120;52.336;21.182;2023-04-25T12:08:09;11.80;95.30
17066;DHT22;23120;52.336;21.182;2023-04-25T12:10:40;11.80;95.10
17066;DHT22;23120;52.336;21.182;2023-04-25T12:13:19;11.90;95.00
17066;DHT22;23120;52.336;21.182;2023-04-25T12:15:46;11.80;94.70
17066;DHT22;23120;52.336;21.182;2023-04-25T12:18:13;11.80;94.60
17066;DHT22;23120;52.336;21.182;2023-04-25T12:20:41;11.90;94.60
17066;DHT22;23120;52.336;21.182;2023-04-25T12:23:08;11.90;94.40
17066;DHT22;23120;52.336;21.182;2023-04-25T12:25:39;11.90;94.40
17066;DHT22;23120;52.336;21.182;2023-04-25T12:28:14;11.90;94.10
17066;DHT22;23120;52.336;21.182;2023-04-25T12:30:55;11.90;94.30
17066;DHT22;23120;52.336;21.182;2023-04-25T12:33:21;12.00;94.20
17066;DHT22;23120;52.336;21.182;2023-04-25T12:35:48;11.90;94.00
17066;DHT22;23120;52.336;21.182;2023-04-25T12:38:21;12.00;94.00
17066;DHT22;23120;52.336;21.182;2023-04-25T12:40:50;11.90;93.80
17066;DHT22;23120;52.336;21.182;2023-04-25T12:43:16;12.00;93.60
17066;DHT22;23120;52.336;21.182;2023-04-25T12:45:44;12.00;93.70
17066;DHT22;23120;52.336;21.182;2023-04-25T12:48:10;12.00;93.50
17066;DHT22;23120;52.336;21.182;2023-04-25T12:50:37;12.00;93.60
17066;DHT22;23120;52.336;21.182;2023-04-25T12:53:04;12.00;93.70
17066;DHT22;23120;52.336;21.182;2023-04-25T12:55:31;12.00;93.60
17066;DHT22;23120;52.336;21.182;2023-04-25T12:58:00;12.00;93.50
17066;DHT22;23120;52.336;21.182;2023-04-25T13:00:27;12.10;93.00
17066;DHT22;23120;52.336;21.182;2023-04-25T13:02:54;12.00;92.90
17066;DHT22;23120;52.336;21.182;2023-04-25T13:05:21;12.00;92.90
17066;DHT22;23120;52.336;21.182;2023-04-25T13:07:49;12.10;93.00
17066;DHT22;23120;52.336;21.182;2023-04-25T13:10:15;12.10;93.00
17066;DHT22;23120;52.336;21.182;2023-04-25T13:12:43;12.10;93.00
17066;DHT22;23120;52.336;21.182;2023-04-25T13:15:13;12.10;92.70
17066;DHT22;23120;52.336;21.182;2023-04-25T13:17:41;12.10;92.50
17066;DHT22;23120;52.336;21.182;2023-04-25T13:20:09;12.10;92.10
17066;DHT22;23120;52.336;21.182;2023-04-25T13:22:36;12.00;91.70
17066;DHT22;23120;52.336;21.182;2023-04-25T13:25:04;12.00;91.80
17066;DHT22;23120;52.336;21.182;2023-04-25T13:27:32;12.00;91.80
17066;DHT22;23120;52.336;21.182;2023-04-25T13:29:59;12.00;91.40
17066;DHT22;23120;52.336;21.182;2023-04-25T13:32:28;12.00;91.70
17066;DHT22;23120;52.336;21.182;2023-04-25T13:34:56;12.00;91.20
17066;DHT22;23120;52.336;21.182;2023-04-25T13:37:24;12.00;90.90
17066;DHT22;23120;52.336;21.182;2023-04-25T13:39:51;12.00;90.90
17066;DHT22;23120;52.336;21.182;2023-04-25T13:42:19;11.90;90.80
17066;DHT22;23120;52.336;21.182;2023-04-25T13:44:46;11.90;90.60
17066;DHT22;23120;52.336;21.182;2023-04-25T13:47:13;11.90;90.80
17066;DHT22;23120;52.336;21.182;2023-04-25T13:49:41;11.90;91.00
17066;DHT22;23120;52.336;21.182;2023-04-25T13:52:07;11.90;91.00
17066;DHT22;23120;52.336;21.182;2023-04-25T13:54:34;11.80;91.20
17066;DHT22;23120;52.336;21.182;2023-04-25T13:57:01;11.80;91.30
17066;DHT22;23120;52.336;21.182;2023-04-25T13:59:28;11.90;91.30
17066;DHT22;23120;52.336;21.182;2023-04-25T14:01:55;11.90;91.30
17066;DHT22;23120;52.336;21.182;2023-04-25T14:04:22;11.90;91.30
17066;DHT22;23120;52.336;21.182;2023-04-25T14:06:50;11.90;91.10
17066;DHT22;23120;52.336;21.182;2023-04-25T14:09:17;11.90;91.40
17066;DHT22;23120;52.336;21.182;2023-04-25T14:11:45;11.90;91.10
17066;DHT22;23120;52.336;21.182;2023-04-25T14:14:12;11.90;91.40
17066;DHT22;23120;52.336;21.182;2023-04-25T14:16:41;11.90;91.10
17066;DHT22;23120;52.336;21.182;2023-04-25T14:19:08;11.90;91.20
17066;DHT22;23120;52.336;21.182;2023-04-25T14:21:35;11.90;91.20
17066;DHT22;23120;52.336;21.182;2023-04-25T14:24:04;11.80;91.10
17066;DHT22;23120;52.336;21.182;2023-04-25T14:26:33;11.80;91.20
17066;DHT22;23120;52.336;21.182;2023-04-25T14:29:00;11.80;91.30
17066;DHT22;23120;52.336;21.182;2023-04-25T14:31:27;11.80;91.20
17066;DHT22;23120;52.336;21.182;2023-04-25T14:33:53;11.80;91.50
17066;DHT22;23120;52.336;21.182;2023-04-25T14:36:20;11.80;91.50
17066;DHT22;23120;52.336;21.182;2023-04-25T14:38:47;11.80;91.50
17066;DHT22;23120;52.336;21.182;2023-04-25T14:41:15;11.80;91.80
17066;DHT22;23120;52.336;21.182;2023-04-25T14:43:42;11.80;92.20
17066;DHT22;23120;52.336;21.182;2023-04-25T14:46:10;11.80;92.40
17066;DHT22;23120;52.336;21.182;2023-04-25T14:48:37;11.80;92.40
17066;DHT22;23120;52.336;21.182;2023-04-25T14:51:04;11.80;92.60
17066;DHT22;23120;52.336;21.182;2023-04-25T14:53:31;11.70;92.80
17066;DHT22;23120;52.336;21.182;2023-04-25T14:55:58;11.70;92.80
17066;DHT22;23120;52.336;21.182;2023-04-25T14:58:26;11.70;92.80
17066;DHT22;23120;52.336;21.182;2023-04-25T15:00:53;11.70;93.50
17066;DHT22;23120;52.336;21.182;2023-04-25T15:03:20;11.60;93.70
17066;DHT22;23120;52.336;21.182;2023-04-25T15:05:47;11.60;93.90
17066;DHT22;23120;52.336;21.182;2023-04-25T15:08:14;11.60;94.00
17066;DHT22;23120;52.336;21.182;2023-04-25T15:10:41;11.60;94.00
17066;DHT22;23120;52.336;21.182;2023-04-25T15:13:07;11.50;94.40
17066;DHT22;23120;52.336;21.182;2023-04-25T15:15:37;11.50;94.40
17066;DHT22;23120;52.336;21.182;2023-04-25T15:18:05;11.50;94.70
17066;DHT22;23120;52.336;21.182;2023-04-25T15:20:32;11.50;94.70
17066;DHT22;23120;52.336;21.182;2023-04-25T15:22:58;11.50;94.70
17066;DHT22;23120;52.336;21.182;2023-04-25T15:25:28;11.50;94.80
17066;DHT22;23120;52.336;21.182;2023-04-25T15:27:55;11.50;95.00
17066;DHT22;23120;52.336;21.182;2023-04-25T15:30:22;11.50;95.00